sensor_id;sensor_type;location;lat;lon;timestamp;P1;durP1;ratioP1;P2;durP2;ratioP2
14681;SDS011;7429;52.498;13.480;2023-09-19T00:01:19;11.82;;;10.93;;
14681;SDS011;7429;52.498;13.480;2023-09-19T00:04:22;7.65;;;6.95;;
14681;SDS011;7429;52.498;13.480;2023-09-19T00:07:30;7.32;;;6.63;;
14681;SDS011;7429;52.498;13.480;2023-09-19T00:10:36;6.88;;;6.38;;
14681;SDS011;7429;52.498;13.480;2023-09-19T00:13:42;8.50;;;7.78;;
14681;SDS011;7429;52.498;13.480;2023-09-19T00:16:46;8.23;;;6.65;;
14681;SDS011;7429;52.498;13.480;2023-09-19T00:19:51;8.00;;;7.40;;
14681;SDS011;7429;52.498;13.480;2023-09-19T00:22:54;9.13;;;8.50;;
14681;SDS011;7429;52.498;13.480;2023-09-19T00:26:00;8.52;;;7.90;;
14681;SDS011;7429;52.498;13.480;2023-09-19T00:29:05;8.98;;;8.30;;
14681;SDS011;7429;52.498;13.480;2023-09-19T00:32:12;9.10;;;8.48;;
14681;SDS011;7429;52.498;13.480;2023-09-19T00:35:15;13.70;;;12.32;;
14681;SDS011;7429;52.498;13.480;2023-09-19T00:38:21;10.50;;;9.90;;
14681;SDS011;7429;52.498;13.480;2023-09-19T00:41:28;13.52;;;12.70;;
14681;SDS011;7429;52.498;13.480;2023-09-19T00:44:33;19.23;;;18.33;;
14681;SDS011;7429;52.498;13.480;2023-09-19T00:47:39;8.55;;;7.20;;
14681;SDS011;7429;52.498;13.480;2023-09-19T00:50:46;8.10;;;6.93;;
14681;SDS011;7429;52.498;13.480;2023-09-19T00:53:50;7.28;;;6.55;;
14681;SDS011;7429;52.498;13.480;2023-09-19T00:56:54;6.13;;;4.38;;
14681;SDS011;7429;52.498;13.480;2023-09-19T01:00:00;6.25;;;5.10;;
14681;SDS011;7429;52.498;13.480;2023-09-19T01:03:06;5.47;;;4.65;;
14681;SDS011;7429;52.498;13.480;2023-09-19T01:06:11;8.57;;;5.80;;
14681;SDS011;7429;52.498;13.480;2023-09-19T01:09:14;7.30;;;6.55;;
14681;SDS011;7429;52.498;13.480;2023-09-19T01:12:21;6.30;;;4.72;;
14681;SDS011;7429;52.498;13.480;2023-09-19T01:15:38;6.75;;;5.13;;
14681;SDS011;7429;52.498;13.480;2023-09-19T01:18:55;9.23;;;6.25;;
14681;SDS011;7429;52.498;13.480;2023-09-19T01:22:14;5.55;;;5.15;;
14681;SDS011;7429;52.498;13.480;2023-09-19T01:29:23;5.40;;;4.93;;
14681;SDS011;7429;52.498;13.480;2023-09-19T01:32:42;9.18;;;4.30;;
14681;SDS011;7429;52.498;13.480;2023-09-19T01:35:45;5.35;;;4.55;;
14681;SDS011;7429;52.498;13.480;2023-09-19T01:38:48;5.20;;;4.75;;
14681;SDS011;7429;52.498;13.480;2023-09-19T01:41:58;8.68;;;6.35;;
14681;SDS011;7429;52.498;13.480;2023-09-19T01:45:08;5.55;;;4.93;;
14681;SDS011;7429;52.498;13.480;2023-09-19T01:48:19;5.60;;;4.55;;
14681;SDS011;7429;52.498;13.480;2023-09-19T01:51:33;4.53;;;4.22;;
14681;SDS011;7429;52.498;13.480;2023-09-19T01:54:55;4.35;;;4.05;;
14681;SDS011;7429;52.498;13.480;2023-09-19T01:58:13;6.35;;;5.00;;
14681;SDS011;7429;52.498;13.480;2023-09-19T02:01:22;5.88;;;4.65;;
14681;SDS011;7429;52.498;13.480;2023-09-19T02:04:29;5.75;;;5.13;;
14681;SDS011;7429;52.498;13.480;2023-09-19T02:07:35;4.43;;;4.03;;
14681;SDS011;7429;52.498;13.480;2023-09-19T02:10:39;5.00;;;4.18;;
14681;SDS011;7429;52.498;13.480;2023-09-19T02:13:42;4.95;;;4.45;;
14681;SDS011;7429;52.498;13.480;2023-09-19T02:16:46;5.13;;;4.60;;
14681;SDS011;7429;52.498;13.480;2023-09-19T02:19:53;8.45;;;4.20;;
14681;SDS011;7429;52.498;13.480;2023-09-19T02:22:57;5.38;;;4.43;;
14681;SDS011;7429;52.498;13.480;2023-09-19T02:26:01;5.22;;;4.82;;
14681;SDS011;7429;52.498;13.480;2023-09-19T02:29:06;6.70;;;4.90;;
14681;SDS011;7429;52.498;13.480;2023-09-19T02:32:12;7.70;;;5.22;;
14681;SDS011;7429;52.498;13.480;2023-09-19T02:35:16;5.70;;;5.20;;
14681;SDS011;7429;52.498;13.480;2023-09-19T02:38:21;4.88;;;4.35;;
14681;SDS011;7429;52.498;13.480;2023-09-19T02:41:26;5.45;;;4.97;;
14681;SDS011;7429;52.498;13.480;2023-09-19T02:44:30;6.53;;;5.03;;
14681;SDS011;7429;52.498;13.480;2023-09-19T02:47:34;5.55;;;5.15;;
14681;SDS011;7429;52.498;13.480;2023-09-19T02:50:38;7.47;;;5.28;;
14681;SDS011;7429;52.498;13.480;2023-09-19T02:53:42;6.25;;;5.68;;
14681;SDS011;7429;52.498;13.480;2023-09-19T02:56:45;6.63;;;5.88;;
14681;SDS011;7429;52.498;13.480;2023-09-19T02:59:48;6.63;;;5.35;;
14681;SDS011;7429;52.498;13.480;2023-09-19T03:02:52;5.47;;;4.45;;
14681;SDS011;7429;52.498;13.480;2023-09-19T03:05:59;5.88;;;5.05;;
14681;SDS011;7429;52.498;13.480;2023-09-19T03:09:05;5.30;;;4.95;;
14681;SDS011;7429;52.498;13.480;2023-09-19T03:12:14;6.97;;;5.47;;
14681;SDS011;7429;52.498;13.480;2023-09-19T03:15:17;6.53;;;6.03;;
14681;SDS011;7429;52.498;13.480;2023-09-19T03:18:23;5.82;;;5.05;;
14681;SDS011;7429;52.498;13.480;2023-09-19T03:21:29;6.55;;;5.70;;
14681;SDS011;7429;52.498;13.480;2023-09-19T03:24:32;6.18;;;5.57;;
14681;SDS011;7429;52.498;13.480;2023-09-19T03:27:38;5.47;;;4.55;;
14681;SDS011;7429;52.498;13.480;2023-09-19T03:30:43;5.53;;;5.05;;
14681;SDS011;7429;52.498;13.480;2023-09-19T03:33:47;9.00;;;8.38;;
14681;SDS011;7429;52.498;13.480;2023-09-19T03:36:51;6.45;;;5.90;;
14681;SDS011;7429;52.498;13.480;2023-09-19T03:39:55;5.88;;;5.40;;
14681;SDS011;7429;52.498;13.480;2023-09-19T03:43:00;7.47;;;6.70;;
14681;SDS011;7429;52.498;13.480;2023-09-19T03:46:04;11.02;;;10.07;;
14681;SDS011;7429;52.498;13.480;2023-09-19T03:49:08;14.25;;;13.45;;
14681;SDS011;7429;52.498;13.480;2023-09-19T03:52:13;13.77;;;12.98;;
14681;SDS011;7429;52.498;13.480;2023-09-19T03:55:17;8.77;;;8.10;;
14681;SDS011;7429;52.498;13.480;2023-09-19T03:58:20;8.10;;;7.70;;
14681;SDS011;7429;52.498;13.480;2023-09-19T04:01:23;7.45;;;6.75;;
14681;SDS011;7429;52.498;13.480;2023-09-19T04:04:29;7.18;;;6.78;;
14681;SDS011;7429;52.498;13.480;2023-09-19T04:07:34;5.82;;;5.28;;
14681;SDS011;7429;52.498;13.480;2023-09-19T04:10:37;8.75;;;8.23;;
14681;SDS011;7429;52.498;13.480;2023-09-19T04:13:41;4.72;;;4.35;;
14681;SDS011;7429;52.498;13.480;2023-09-19T04:16:44;4.40;;;4.00;;
14681;SDS011;7429;52.498;13.480;2023-09-19T04:19:47;3.95;;;3.28;;
14681;SDS011;7429;52.498;13.480;2023-09-19T04:22:52;5.65;;;5.25;;
14681;SDS011;7429;52.498;13.480;2023-09-19T04:25:59;4.85;;;4.45;;
14681;SDS011;7429;52.498;13.480;2023-09-19T04:29:02;5.70;;;5.28;;
14681;SDS011;7429;52.498;13.480;2023-09-19T04:32:07;3.53;;;3.33;;
14681;SDS011;7429;52.498;13.480;2023-09-19T04:35:11;8.80;;;6.07;;
14681;SDS011;7429;52.498;13.480;2023-09-19T04:38:15;6.78;;;5.82;;
14681;SDS011;7429;52.498;13.480;2023-09-19T04:41:20;5.97;;;4.78;;
14681;SDS011;7429;52.498;13.480;2023-09-19T04:44:23;5.40;;;5.03;;
14681;SDS011;7429;52.498;13.480;2023-09-19T04:47:26;4.45;;;4.13;;
14681;SDS011;7429;52.498;13.480;2023-09-19T04:50:30;5.90;;;5.15;;
14681;SDS011;7429;52.498;13.480;2023-09-19T04:53:34;5.90;;;5.40;;
14681;SDS011;7429;52.498;13.480;2023-09-19T04:56:52;4.97;;;4.05;;
14681;SDS011;7429;52.498;13.480;2023-09-19T04:59:55;4.32;;;4.03;;
14681;SDS011;7429;52.498;13.480;2023-09-19T05:02:58;4.90;;;4.40;;
14681;SDS011;7429;52.498;13.480;2023-09-19T05:06:04;6.07;;;5.68;;
14681;SDS011;7429;52.498;13.480;2023-09-19T05:09:09;6.07;;;5.68;;
14681;SDS011;7429;52.498;13.480;2023-09-19T05:12:12;5.00;;;4.70;;
14681;SDS011;7429;52.498;13.480;2023-09-19T05:15:15;9.70;;;5.45;;
14681;SDS011;7429;52.498;13.480;2023-09-19T05:18:18;6.88;;;5.18;;
14681;SDS011;7429;52.498;13.480;2023-09-19T05:21:23;8.00;;;6.63;;
14681;SDS011;7429;52.498;13.480;2023-09-19T05:24:28;7.65;;;6.95;;
14681;SDS011;7429;52.498;13.480;2023-09-19T05:27:31;3.78;;;3.45;;
14681;SDS011;7429;52.498;13.480;2023-09-19T05:30:35;6.40;;;3.60;;
14681;SDS011;7429;52.498;13.480;2023-09-19T05:33:40;8.05;;;7.35;;
14681;SDS011;7429;52.498;13.480;2023-09-19T05:36:44;5.22;;;3.53;;
14681;SDS011;7429;52.498;13.480;2023-09-19T05:39:48;6.03;;;4.53;;
14681;SDS011;7429;52.498;13.480;2023-09-19T05:42:51;4.38;;;3.97;;
14681;SDS011;7429;52.498;13.480;2023-09-19T05:45:54;4.25;;;3.85;;
14681;SDS011;7429;52.498;13.480;2023-09-19T05:48:58;4.05;;;3.72;;
14681;SDS011;7429;52.498;13.480;2023-09-19T05:52:01;5.13;;;3.50;;
14681;SDS011;7429;52.498;13.480;2023-09-19T05:55:08;6.43;;;4.15;;
14681;SDS011;7429;52.498;13.480;2023-09-19T05:58:12;5.60;;;4.30;;
14681;SDS011;7429;52.498;13.480;2023-09-19T06:01:16;6.97;;;3.88;;
14681;SDS011;7429;52.498;13.480;2023-09-19T06:04:19;4.40;;;4.10;;
14681;SDS011;7429;52.498;13.480;2023-09-19T06:07:23;8.32;;;4.80;;
14681;SDS011;7429;52.498;13.480;2023-09-19T06:10:39;4.97;;;4.32;;
14681;SDS011;7429;52.498;13.480;2023-09-19T06:13:42;5.30;;;4.60;;
14681;SDS011;7429;52.498;13.480;2023-09-19T06:16:48;6.05;;;4.22;;
14681;SDS011;7429;52.498;13.480;2023-09-19T06:19:52;5.13;;;3.58;;
14681;SDS011;7429;52.498;13.480;2023-09-19T06:22:56;4.82;;;3.83;;
14681;SDS011;7429;52.498;13.480;2023-09-19T06:26:01;6.07;;;2.83;;
14681;SDS011;7429;52.498;13.480;2023-09-19T06:29:04;4.95;;;3.83;;
14681;SDS011;7429;52.498;13.480;2023-09-19T06:32:09;4.85;;;4.30;;
14681;SDS011;7429;52.498;13.480;2023-09-19T06:35:13;6.32;;;4.20;;
14681;SDS011;7429;52.498;13.480;2023-09-19T06:38:18;4.07;;;2.95;;
14681;SDS011;7429;52.498;13.480;2023-09-19T06:41:23;5.47;;;3.85;;
14681;SDS011;7429;52.498;13.480;2023-09-19T06:44:26;6.35;;;3.78;;
14681;SDS011;7429;52.498;13.480;2023-09-19T06:47:31;4.60;;;4.18;;
14681;SDS011;7429;52.498;13.480;2023-09-19T06:50:35;5.13;;;3.33;;
14681;SDS011;7429;52.498;13.480;2023-09-19T06:53:38;4.45;;;3.33;;
14681;SDS011;7429;52.498;13.480;2023-09-19T06:56:43;3.97;;;3.50;;
14681;SDS011;7429;52.498;13.480;2023-09-19T06:59:46;8.18;;;4.13;;
14681;SDS011;7429;52.498;13.480;2023-09-19T07:02:56;6.40;;;4.03;;
14681;SDS011;7429;52.498;13.480;2023-09-19T07:06:00;4.82;;;3.85;;
14681;SDS011;7429;52.498;13.480;2023-09-19T07:09:10;5.40;;;4.22;;
14681;SDS011;7429;52.498;13.480;2023-09-19T07:12:15;6.45;;;4.97;;
14681;SDS011;7429;52.498;13.480;2023-09-19T07:15:19;8.10;;;5.68;;
14681;SDS011;7429;52.498;13.480;2023-09-19T07:18:22;9.90;;;4.70;;
14681;SDS011;7429;52.498;13.480;2023-09-19T07:21:26;6.97;;;4.15;;
14681;SDS011;7429;52.498;13.480;2023-09-19T07:24:30;9.88;;;4.55;;
14681;SDS011;7429;52.498;13.480;2023-09-19T07:27:35;4.07;;;3.33;;
14681;SDS011;7429;52.498;13.480;2023-09-19T07:30:38;6.60;;;3.92;;
14681;SDS011;7429;52.498;13.480;2023-09-19T07:33:44;5.40;;;3.78;;
14681;SDS011;7429;52.498;13.480;2023-09-19T07:36:50;5.28;;;3.65;;
14681;SDS011;7429;52.498;13.480;2023-09-19T07:39:53;4.40;;;3.97;;
14681;SDS011;7429;52.498;13.480;2023-09-19T07:42:59;5.53;;;4.03;;
14681;SDS011;7429;52.498;13.480;2023-09-19T07:46:03;8.85;;;4.28;;
14681;SDS011;7429;52.498;13.480;2023-09-19T07:49:10;6.70;;;3.97;;
14681;SDS011;7429;52.498;13.480;2023-09-19T07:52:13;7.65;;;3.72;;
14681;SDS011;7429;52.498;13.480;2023-09-19T07:55:17;5.25;;;4.07;;
14681;SDS011;7429;52.498;13.480;2023-09-19T07:58:23;7.82;;;7.03;;
14681;SDS011;7429;52.498;13.480;2023-09-19T08:01:26;6.22;;;5.00;;
14681;SDS011;7429;52.498;13.480;2023-09-19T08:04:30;16.15;;;4.75;;
14681;SDS011;7429;52.498;13.480;2023-09-19T08:07:35;9.95;;;4.57;;
14681;SDS011;7429;52.498;13.480;2023-09-19T08:10:38;6.72;;;4.32;;
14681;SDS011;7429;52.498;13.480;2023-09-19T08:13:45;6.85;;;4.32;;
14681;SDS011;7429;52.498;13.480;2023-09-19T08:16:50;6.18;;;4.03;;
14681;SDS011;7429;52.498;13.480;2023-09-19T08:19:54;5.00;;;4.30;;
14681;SDS011;7429;52.498;13.480;2023-09-19T08:22:57;5.25;;;4.03;;
14681;SDS011;7429;52.498;13.480;2023-09-19T08:26:00;7.82;;;4.75;;
14681;SDS011;7429;52.498;13.480;2023-09-19T08:29:09;6.82;;;3.97;;
14681;SDS011;7429;52.498;13.480;2023-09-19T08:32:14;5.50;;;4.00;;
14681;SDS011;7429;52.498;13.480;2023-09-19T08:35:21;6.47;;;4.50;;
14681;SDS011;7429;52.498;13.480;2023-09-19T08:38:26;8.85;;;4.00;;
14681;SDS011;7429;52.498;13.480;2023-09-19T08:41:31;8.15;;;4.82;;
14681;SDS011;7429;52.498;13.480;2023-09-19T08:44:37;7.85;;;3.63;;
14681;SDS011;7429;52.498;13.480;2023-09-19T08:47:45;10.35;;;4.32;;
14681;SDS011;7429;52.498;13.480;2023-09-19T08:50:52;7.32;;;4.38;;
14681;SDS011;7429;52.498;13.480;2023-09-19T08:54:03;9.45;;;4.47;;
14681;SDS011;7429;52.498;13.480;2023-09-19T08:57:11;4.50;;;4.07;;
14681;SDS011;7429;52.498;13.480;2023-09-19T09:00:24;7.28;;;4.10;;
14681;SDS011;7429;52.498;13.480;2023-09-19T09:03:30;6.82;;;4.65;;
14681;SDS011;7429;52.498;13.480;2023-09-19T09:06:36;7.38;;;4.78;;
14681;SDS011;7429;52.498;13.480;2023-09-19T09:09:41;7.07;;;4.35;;
14681;SDS011;7429;52.498;13.480;2023-09-19T09:12:45;5.72;;;4.10;;
14681;SDS011;7429;52.498;13.480;2023-09-19T09:15:52;5.72;;;4.45;;
14681;SDS011;7429;52.498;13.480;2023-09-19T09:18:56;5.43;;;4.50;;
14681;SDS011;7429;52.498;13.480;2023-09-19T09:22:06;5.25;;;4.25;;
14681;SDS011;7429;52.498;13.480;2023-09-19T09:25:12;8.32;;;4.57;;
14681;SDS011;7429;52.498;13.480;2023-09-19T09:28:19;6.35;;;3.95;;
14681;SDS011;7429;52.498;13.480;2023-09-19T09:31:28;6.25;;;4.45;;
14681;SDS011;7429;52.498;13.480;2023-09-19T09:34:33;9.07;;;3.95;;
14681;SDS011;7429;52.498;13.480;2023-09-19T09:37:36;7.55;;;3.83;;
14681;SDS011;7429;52.498;13.480;2023-09-19T09:40:46;12.57;;;4.43;;
14681;SDS011;7429;52.498;13.480;2023-09-19T09:43:55;9.50;;;5.55;;
14681;SDS011;7429;52.498;13.480;2023-09-19T09:47:02;7.28;;;5.30;;
14681;SDS011;7429;52.498;13.480;2023-09-19T09:50:26;7.03;;;4.47;;
14681;SDS011;7429;52.498;13.480;2023-09-19T09:53:46;12.80;;;4.75;;
14681;SDS011;7429;52.498;13.480;2023-09-19T09:56:53;7.90;;;4.53;;
14681;SDS011;7429;52.498;13.480;2023-09-19T10:00:00;11.85;;;4.80;;
14681;SDS011;7429;52.498;13.480;2023-09-19T10:03:23;7.63;;;4.50;;
14681;SDS011;7429;52.498;13.480;2023-09-19T10:06:40;8.98;;;4.40;;
14681;SDS011;7429;52.498;13.480;2023-09-19T10:09:48;8.30;;;4.20;;
14681;SDS011;7429;52.498;13.480;2023-09-19T10:12:55;7.93;;;4.35;;
14681;SDS011;7429;52.498;13.480;2023-09-19T10:16:05;6.28;;;3.63;;
14681;SDS011;7429;52.498;13.480;2023-09-19T10:19:20;6.95;;;3.60;;
14681;SDS011;7429;52.498;13.480;2023-09-19T10:22:27;8.70;;;3.78;;
14681;SDS011;7429;52.498;13.480;2023-09-19T10:25:34;12.85;;;4.15;;
14681;SDS011;7429;52.498;13.480;2023-09-19T10:28:40;9.02;;;3.60;;
14681;SDS011;7429;52.498;13.480;2023-09-19T10:31:52;7.18;;;3.67;;
14681;SDS011;7429;52.498;13.480;2023-09-19T10:34:57;6.57;;;3.70;;
14681;SDS011;7429;52.498;13.480;2023-09-19T10:38:02;10.13;;;4.07;;
14681;SDS011;7429;52.498;13.480;2023-09-19T10:41:10;9.63;;;4.07;;
14681;SDS011;7429;52.498;13.480;2023-09-19T10:44:21;6.45;;;4.05;;
14681;SDS011;7429;52.498;13.480;2023-09-19T10:47:29;6.68;;;4.25;;
14681;SDS011;7429;52.498;13.480;2023-09-19T10:50:35;5.07;;;3.60;;
14681;SDS011;7429;52.498;13.480;2023-09-19T10:53:48;6.45;;;4.20;;
14681;SDS011;7429;52.498;13.480;2023-09-19T10:56:56;8.50;;;4.10;;
14681;SDS011;7429;52.498;13.480;2023-09-19T11:00:02;7.53;;;3.90;;
14681;SDS011;7429;52.498;13.480;2023-09-19T11:03:25;8.95;;;3.75;;
14681;SDS011;7429;52.498;13.480;2023-09-19T11:06:34;9.65;;;4.38;;
14681;SDS011;7429;52.498;13.480;2023-09-19T11:09:44;9.30;;;4.03;;
14681;SDS011;7429;52.498;13.480;2023-09-19T11:12:49;7.68;;;3.92;;
14681;SDS011;7429;52.498;13.480;2023-09-19T11:19:12;7.10;;;4.43;;
14681;SDS011;7429;52.498;13.480;2023-09-19T11:22:16;7.00;;;3.42;;
14681;SDS011;7429;52.498;13.480;2023-09-19T11:28:49;7.47;;;4.15;;
14681;SDS011;7429;52.498;13.480;2023-09-19T11:36:28;10.77;;;3.95;;
14681;SDS011;7429;52.498;13.480;2023-09-19T11:39:37;7.22;;;3.60;;
14681;SDS011;7429;52.498;13.480;2023-09-19T11:42:42;8.57;;;3.17;;
14681;SDS011;7429;52.498;13.480;2023-09-19T11:46:06;10.00;;;4.30;;
14681;SDS011;7429;52.498;13.480;2023-09-19T11:49:13;8.07;;;3.60;;
14681;SDS011;7429;52.498;13.480;2023-09-19T11:52:22;10.23;;;3.78;;
14681;SDS011;7429;52.498;13.480;2023-09-19T11:55:27;6.80;;;3.28;;
14681;SDS011;7429;52.498;13.480;2023-09-19T11:58:32;9.20;;;3.65;;
14681;SDS011;7429;52.498;13.480;2023-09-19T12:01:42;10.02;;;3.90;;
14681;SDS011;7429;52.498;13.480;2023-09-19T12:04:58;8.40;;;3.38;;
14681;SDS011;7429;52.498;13.480;2023-09-19T12:08:05;8.80;;;3.58;;
14681;SDS011;7429;52.498;13.480;2023-09-19T12:11:12;5.78;;;3.22;;
14681;SDS011;7429;52.498;13.480;2023-09-19T12:14:22;6.15;;;2.83;;
14681;SDS011;7429;52.498;13.480;2023-09-19T12:17:35;6.10;;;3.20;;
14681;SDS011;7429;52.498;13.480;2023-09-19T12:20:43;6.38;;;3.17;;
14681;SDS011;7429;52.498;13.480;2023-09-19T12:24:04;8.10;;;3.78;;
14681;SDS011;7429;52.498;13.480;2023-09-19T12:27:25;6.95;;;3.45;;
14681;SDS011;7429;52.498;13.480;2023-09-19T12:30:29;7.57;;;2.80;;
14681;SDS011;7429;52.498;13.480;2023-09-19T12:33:36;4.32;;;3.20;;
14681;SDS011;7429;52.498;13.480;2023-09-19T12:36:41;8.45;;;3.03;;
14681;SDS011;7429;52.498;13.480;2023-09-19T12:39:45;5.80;;;3.70;;
14681;SDS011;7429;52.498;13.480;2023-09-19T12:42:52;9.88;;;3.20;;
14681;SDS011;7429;52.498;13.480;2023-09-19T12:45:57;5.90;;;3.28;;
14681;SDS011;7429;52.498;13.480;2023-09-19T12:49:18;6.38;;;3.25;;
14681;SDS011;7429;52.498;13.480;2023-09-19T12:52:22;8.80;;;3.95;;
14681;SDS011;7429;52.498;13.480;2023-09-19T12:55:27;6.60;;;2.72;;
14681;SDS011;7429;52.498;13.480;2023-09-19T12:58:34;6.68;;;2.72;;
14681;SDS011;7429;52.498;13.480;2023-09-19T13:01:52;4.53;;;2.95;;
14681;SDS011;7429;52.498;13.480;2023-09-19T13:05:10;7.40;;;2.90;;
14681;SDS011;7429;52.498;13.480;2023-09-19T13:08:18;7.40;;;3.42;;
14681;SDS011;7429;52.498;13.480;2023-09-19T13:11:23;6.57;;;3.08;;
14681;SDS011;7429;52.498;13.480;2023-09-19T13:14:43;5.20;;;2.90;;
14681;SDS011;7429;52.498;13.480;2023-09-19T13:17:50;5.97;;;3.08;;
14681;SDS011;7429;52.498;13.480;2023-09-19T13:21:08;4.22;;;2.90;;
14681;SDS011;7429;52.498;13.480;2023-09-19T13:24:20;7.45;;;3.25;;
14681;SDS011;7429;52.498;13.480;2023-09-19T13:27:27;6.47;;;2.90;;
14681;SDS011;7429;52.498;13.480;2023-09-19T13:30:30;5.55;;;3.25;;
14681;SDS011;7429;52.498;13.480;2023-09-19T13:33:34;3.33;;;2.67;;
14681;SDS011;7429;52.498;13.480;2023-09-19T13:36:39;9.05;;;3.33;;
14681;SDS011;7429;52.498;13.480;2023-09-19T13:39:42;6.78;;;2.78;;
14681;SDS011;7429;52.498;13.480;2023-09-19T13:42:49;8.48;;;3.15;;
14681;SDS011;7429;52.498;13.480;2023-09-19T13:45:57;5.45;;;3.30;;
14681;SDS011;7429;52.498;13.480;2023-09-19T13:49:03;7.18;;;2.72;;
14681;SDS011;7429;52.498;13.480;2023-09-19T13:52:08;10.25;;;3.00;;
14681;SDS011;7429;52.498;13.480;2023-09-19T13:55:14;10.38;;;3.38;;
14681;SDS011;7429;52.498;13.480;2023-09-19T13:58:21;6.07;;;3.20;;
14681;SDS011;7429;52.498;13.480;2023-09-19T14:01:25;7.55;;;3.22;;
14681;SDS011;7429;52.498;13.480;2023-09-19T14:04:29;5.22;;;2.85;;
14681;SDS011;7429;52.498;13.480;2023-09-19T14:07:34;6.80;;;3.22;;
14681;SDS011;7429;52.498;13.480;2023-09-19T14:10:38;8.00;;;3.50;;
14681;SDS011;7429;52.498;13.480;2023-09-19T14:13:41;4.38;;;2.97;;
14681;SDS011;7429;52.498;13.480;2023-09-19T14:16:48;7.28;;;2.63;;
14681;SDS011;7429;52.498;13.480;2023-09-19T14:19:53;4.65;;;3.22;;
14681;SDS011;7429;52.498;13.480;2023-09-19T14:22:58;6.30;;;2.72;;
14681;SDS011;7429;52.498;13.480;2023-09-19T14:26:05;5.22;;;3.50;;
14681;SDS011;7429;52.498;13.480;2023-09-19T14:29:10;6.60;;;2.80;;
14681;SDS011;7429;52.498;13.480;2023-09-19T14:32:14;5.40;;;3.58;;
14681;SDS011;7429;52.498;13.480;2023-09-19T14:35:18;5.50;;;3.17;;
14681;SDS011;7429;52.498;13.480;2023-09-19T14:38:22;7.65;;;2.90;;
14681;SDS011;7429;52.498;13.480;2023-09-19T14:41:26;5.68;;;2.90;;
14681;SDS011;7429;52.498;13.480;2023-09-19T14:44:29;6.70;;;3.25;;
14681;SDS011;7429;52.498;13.480;2023-09-19T14:47:33;5.93;;;3.20;;
14681;SDS011;7429;52.498;13.480;2023-09-19T14:50:36;5.43;;;3.15;;
14681;SDS011;7429;52.498;13.480;2023-09-19T14:53:41;5.40;;;2.80;;
14681;SDS011;7429;52.498;13.480;2023-09-19T14:56:44;4.85;;;3.08;;
14681;SDS011;7429;52.498;13.480;2023-09-19T14:59:55;4.65;;;3.33;;
14681;SDS011;7429;52.498;13.480;2023-09-19T15:02:58;9.55;;;3.40;;
14681;SDS011;7429;52.498;13.480;2023-09-19T15:06:02;7.40;;;3.30;;
14681;SDS011;7429;52.498;13.480;2023-09-19T15:09:08;7.72;;;3.42;;
14681;SDS011;7429;52.498;13.480;2023-09-19T15:12:14;5.35;;;3.38;;
14681;SDS011;7429;52.498;13.480;2023-09-19T15:15:21;6.80;;;3.13;;
14681;SDS011;7429;52.498;13.480;2023-09-19T15:18:27;6.20;;;3.38;;
14681;SDS011;7429;52.498;13.480;2023-09-19T15:21:32;5.28;;;3.08;;
14681;SDS011;7429;52.498;13.480;2023-09-19T15:24:39;9.25;;;2.88;;
14681;SDS011;7429;52.498;13.480;2023-09-19T15:27:43;7.28;;;3.03;;
14681;SDS011;7429;52.498;13.480;2023-09-19T15:30:47;6.80;;;3.33;;
14681;SDS011;7429;52.498;13.480;2023-09-19T15:33:50;5.95;;;2.83;;
14681;SDS011;7429;52.498;13.480;2023-09-19T15:36:54;6.93;;;3.42;;
14681;SDS011;7429;52.498;13.480;2023-09-19T15:39:58;9.02;;;2.97;;
14681;SDS011;7429;52.498;13.480;2023-09-19T15:43:02;6.43;;;3.20;;
14681;SDS011;7429;52.498;13.480;2023-09-19T15:46:05;4.78;;;3.50;;
14681;SDS011;7429;52.498;13.480;2023-09-19T15:49:08;6.68;;;3.53;;
14681;SDS011;7429;52.498;13.480;2023-09-19T15:52:12;7.25;;;3.28;;
14681;SDS011;7429;52.498;13.480;2023-09-19T15:55:20;7.32;;;3.30;;
14681;SDS011;7429;52.498;13.480;2023-09-19T15:58:30;5.38;;;3.45;;
14681;SDS011;7429;52.498;13.480;2023-09-19T16:01:34;4.20;;;3.50;;
14681;SDS011;7429;52.498;13.480;2023-09-19T16:04:38;8.57;;;3.80;;
14681;SDS011;7429;52.498;13.480;2023-09-19T16:07:41;8.88;;;3.90;;
14681;SDS011;7429;52.498;13.480;2023-09-19T16:10:48;11.07;;;3.13;;
14681;SDS011;7429;52.498;13.480;2023-09-19T16:13:52;10.30;;;3.75;;
14681;SDS011;7429;52.498;13.480;2023-09-19T16:16:57;11.00;;;3.30;;
14681;SDS011;7429;52.498;13.480;2023-09-19T16:20:01;5.60;;;3.40;;
14681;SDS011;7429;52.498;13.480;2023-09-19T16:23:05;4.95;;;3.30;;
14681;SDS011;7429;52.498;13.480;2023-09-19T16:26:10;5.43;;;3.22;;
14681;SDS011;7429;52.498;13.480;2023-09-19T16:29:14;4.93;;;3.65;;
14681;SDS011;7429;52.498;13.480;2023-09-19T16:32:17;8.88;;;3.55;;
14681;SDS011;7429;52.498;13.480;2023-09-19T16:35:24;7.97;;;3.30;;
14681;SDS011;7429;52.498;13.480;2023-09-19T16:38:27;9.65;;;3.90;;
14681;SDS011;7429;52.498;13.480;2023-09-19T16:41:32;6.45;;;3.58;;
14681;SDS011;7429;52.498;13.480;2023-09-19T16:44:36;8.82;;;4.22;;
14681;SDS011;7429;52.498;13.480;2023-09-19T16:47:43;5.00;;;3.28;;
14681;SDS011;7429;52.498;13.480;2023-09-19T16:50:59;10.30;;;3.83;;
14681;SDS011;7429;52.498;13.480;2023-09-19T16:54:05;9.05;;;4.10;;
14681;SDS011;7429;52.498;13.480;2023-09-19T16:57:12;7.78;;;3.88;;
14681;SDS011;7429;52.498;13.480;2023-09-19T17:00:30;6.68;;;3.55;;
14681;SDS011;7429;52.498;13.480;2023-09-19T17:03:39;5.93;;;4.45;;
14681;SDS011;7429;52.498;13.480;2023-09-19T17:06:48;9.40;;;4.10;;
14681;SDS011;7429;52.498;13.480;2023-09-19T17:09:54;12.48;;;4.05;;
14681;SDS011;7429;52.498;13.480;2023-09-19T17:13:05;7.82;;;3.95;;
14681;SDS011;7429;52.498;13.480;2023-09-19T17:16:10;7.13;;;4.03;;
14681;SDS011;7429;52.498;13.480;2023-09-19T17:19:21;5.13;;;3.42;;
14681;SDS011;7429;52.498;13.480;2023-09-19T17:22:27;9.60;;;3.85;;
14681;SDS011;7429;52.498;13.480;2023-09-19T17:25:42;10.77;;;4.03;;
14681;SDS011;7429;52.498;13.480;2023-09-19T17:28:55;10.13;;;4.05;;
14681;SDS011;7429;52.498;13.480;2023-09-19T17:31:59;12.65;;;4.95;;
14681;SDS011;7429;52.498;13.480;2023-09-19T17:35:07;12.32;;;4.13;;
14681;SDS011;7429;52.498;13.480;2023-09-19T17:38:14;12.02;;;4.65;;
14681;SDS011;7429;52.498;13.480;2023-09-19T17:41:23;7.32;;;4.30;;
14681;SDS011;7429;52.498;13.480;2023-09-19T17:44:33;7.18;;;4.25;;
14681;SDS011;7429;52.498;13.480;2023-09-19T17:47:42;8.23;;;4.47;;
14681;SDS011;7429;52.498;13.480;2023-09-19T17:50:58;7.82;;;4.13;;
14681;SDS011;7429;52.498;13.480;2023-09-19T17:54:05;5.88;;;4.60;;
14681;SDS011;7429;52.498;13.480;2023-09-19T17:57:08;6.88;;;4.07;;
14681;SDS011;7429;52.498;13.480;2023-09-19T18:00:17;11.70;;;4.57;;
14681;SDS011;7429;52.498;13.480;2023-09-19T18:03:29;9.48;;;4.90;;
14681;SDS011;7429;52.498;13.480;2023-09-19T18:06:38;10.70;;;4.72;;
14681;SDS011;7429;52.498;13.480;2023-09-19T18:09:45;9.73;;;5.05;;
14681;SDS011;7429;52.498;13.480;2023-09-19T18:12:48;7.13;;;4.00;;
14681;SDS011;7429;52.498;13.480;2023-09-19T18:15:54;7.38;;;4.28;;
14681;SDS011;7429;52.498;13.480;2023-09-19T18:18:57;8.95;;;4.00;;
14681;SDS011;7429;52.498;13.480;2023-09-19T18:22:02;8.05;;;3.97;;
14681;SDS011;7429;52.498;13.480;2023-09-19T18:25:06;12.00;;;4.95;;
14681;SDS011;7429;52.498;13.480;2023-09-19T18:28:10;7.75;;;4.38;;
14681;SDS011;7429;52.498;13.480;2023-09-19T18:31:16;6.05;;;3.75;;
14681;SDS011;7429;52.498;13.480;2023-09-19T18:34:20;5.35;;;3.85;;
14681;SDS011;7429;52.498;13.480;2023-09-19T18:37:25;8.43;;;3.95;;
14681;SDS011;7429;52.498;13.480;2023-09-19T18:40:28;9.48;;;4.75;;
14681;SDS011;7429;52.498;13.480;2023-09-19T18:43:32;8.55;;;3.95;;
14681;SDS011;7429;52.498;13.480;2023-09-19T18:46:39;8.48;;;5.05;;
14681;SDS011;7429;52.498;13.480;2023-09-19T18:49:46;9.57;;;5.38;;
14681;SDS011;7429;52.498;13.480;2023-09-19T18:52:49;10.07;;;4.97;;
14681;SDS011;7429;52.498;13.480;2023-09-19T18:56:01;12.48;;;4.97;;